sensor_id;sensor_type;location;lat;lon;timestamp;pressure;altitude;pressure_sealevel;temperature;humidity
52975;BME280;38839;45.186;5.720;2023-04-02T00:07:56;98759.41;;;8.18;92.04
52975;BME280;38839;45.186;5.720;2023-04-02T00:10:35;98761.13;;;8.19;91.97
52975;BME280;38839;45.186;5.720;2023-04-02T00:15:47;98761.13;;;8.27;91.05
52975;BME280;38839;45.186;5.720;2023-04-02T00:18:23;98760.28;;;8.46;90.32
52975;BME280;38839;45.186;5.720;2023-04-02T00:20:55;98758.53;;;8.58;89.55
52975;BME280;38839;45.186;5.720;2023-04-02T00:23:25;98754.19;;;8.66;89.18
52975;BME280;38839;45.186;5.720;2023-04-02T00:25:51;98756.78;;;8.78;88.49
52975;BME280;38839;45.186;5.720;2023-04-02T00:28:19;98755.00;;;8.86;87.47
52975;BME280;38839;45.186;5.720;2023-04-02T00:33:16;98761.94;;;8.97;86.52
52975;BME280;38839;45.186;5.720;2023-04-02T00:35:42;98757.56;;;8.96;85.86
52975;BME280;38839;45.186;5.720;2023-04-02T00:38:18;98751.50;;;9.00;85.71
52975;BME280;38839;45.186;5.720;2023-04-02T00:40:45;98756.72;;;8.94;85.83
52975;BME280;38839;45.186;5.720;2023-04-02T00:43:13;98763.63;;;8.98;85.78
52975;BME280;38839;45.186;5.720;2023-04-02T00:45:42;98758.44;;;8.98;85.77
52975;BME280;38839;45.186;5.720;2023-04-02T00:48:36;98772.34;;;8.81;86.48
52975;BME280;38839;45.186;5.720;2023-04-02T00:51:52;98775.03;;;8.48;89.31
52975;BME280;38839;45.186;5.720;2023-04-02T00:54:18;98764.59;;;8.38;89.46
52975;BME280;38839;45.186;5.720;2023-04-02T00:56:47;98785.38;;;8.34;89.83
52975;BME280;38839;45.186;5.720;2023-04-02T00:59:35;98777.59;;;8.27;89.75
52975;BME280;38839;45.186;5.720;2023-04-02T01:04:39;98774.13;;;8.15;90.64
52975;BME280;38839;45.186;5.720;2023-04-02T01:07:07;98781.06;;;8.13;91.68
52975;BME280;38839;45.186;5.720;2023-04-02T01:12:29;98789.72;;;7.98;91.23
52975;BME280;38839;45.186;5.720;2023-04-02T01:15:01;98792.25;;;7.87;91.21
52975;BME280;38839;45.186;5.720;2023-04-02T01:17:51;98787.94;;;7.83;92.00
52975;BME280;38839;45.186;5.720;2023-04-02T01:20:42;98794.88;;;7.85;91.77
52975;BME280;38839;45.186;5.720;2023-04-02T01:23:20;98791.41;;;7.86;91.78
52975;BME280;38839;45.186;5.720;2023-04-02T01:31:21;98790.56;;;7.97;92.70
52975;BME280;38839;45.186;5.720;2023-04-02T01:33:47;98809.59;;;7.97;92.71
52975;BME280;38839;45.186;5.720;2023-04-02T01:38:57;98800.94;;;7.89;93.90
52975;BME280;38839;45.186;5.720;2023-04-02T01:41:48;98805.28;;;7.96;93.12
52975;BME280;38839;45.186;5.720;2023-04-02T01:44:26;98802.69;;;8.02;93.23
52975;BME280;38839;45.186;5.720;2023-04-02T01:46:53;98797.50;;;8.05;93.61
52975;BME280;38839;45.186;5.720;2023-04-02T01:49:20;98804.44;;;8.14;93.63
52975;BME280;38839;45.186;5.720;2023-04-02T01:51:51;98795.78;;;8.23;92.39
52975;BME280;38839;45.186;5.720;2023-04-02T01:54:20;98794.03;;;8.30;92.47
52975;BME280;38839;45.186;5.720;2023-04-02T01:56:46;98797.53;;;8.44;91.41
52975;BME280;38839;45.186;5.720;2023-04-02T01:59:13;98797.53;;;8.56;91.05
52975;BME280;38839;45.186;5.720;2023-04-02T02:02:08;98799.28;;;8.51;90.19
52975;BME280;38839;45.186;5.720;2023-04-02T02:04:35;98806.19;;;8.29;90.87
52975;BME280;38839;45.186;5.720;2023-04-02T02:07:01;98813.09;;;8.25;90.52
52975;BME280;38839;45.186;5.720;2023-04-02T02:09:31;98807.91;;;8.27;90.74
52975;BME280;38839;45.186;5.720;2023-04-02T02:11:57;98806.19;;;8.17;90.39
52975;BME280;38839;45.186;5.720;2023-04-02T02:14:25;98811.38;;;8.24;90.53
52975;BME280;38839;45.186;5.720;2023-04-02T02:16:53;98800.13;;;8.39;90.32
52975;BME280;38839;45.186;5.720;2023-04-02T02:19:37;98811.41;;;8.54;89.65
52975;BME280;38839;45.186;5.720;2023-04-02T02:24:47;98801.88;;;8.60;89.15
52975;BME280;38839;45.186;5.720;2023-04-02T02:29:42;98802.75;;;8.65;89.01
52975;BME280;38839;45.186;5.720;2023-04-02T02:32:11;98815.75;;;8.64;88.85
52975;BME280;38839;45.186;5.720;2023-04-02T02:34:40;98808.81;;;8.66;88.14
52975;BME280;38839;45.186;5.720;2023-04-02T02:37:23;98805.31;;;8.67;87.66
52975;BME280;38839;45.186;5.720;2023-04-02T02:39:56;98801.00;;;8.63;87.04
52975;BME280;38839;45.186;5.720;2023-04-02T02:42:25;98801.00;;;8.66;86.60
52975;BME280;38839;45.186;5.720;2023-04-02T02:44:54;98805.34;;;8.70;85.59
52975;BME280;38839;45.186;5.720;2023-04-02T02:47:26;98801.88;;;8.74;85.03
52975;BME280;38839;45.186;5.720;2023-04-02T02:49:59;98804.47;;;8.66;84.52
52975;BME280;38839;45.186;5.720;2023-04-02T02:52:28;98813.16;;;8.64;84.48
52975;BME280;38839;45.186;5.720;2023-04-02T02:55:01;98817.47;;;8.62;83.92
52975;BME280;38839;45.186;5.720;2023-04-02T02:57:36;98824.41;;;8.41;86.00
52975;BME280;38839;45.186;5.720;2023-04-02T03:00:04;98832.19;;;8.31;87.51
52975;BME280;38839;45.186;5.720;2023-04-02T03:02:35;98838.22;;;8.17;89.24
52975;BME280;38839;45.186;5.720;2023-04-02T03:05:02;98840.78;;;8.05;89.40
52975;BME280;38839;45.186;5.720;2023-04-02T03:07:30;98840.78;;;7.96;91.14
52975;BME280;38839;45.186;5.720;2023-04-02T03:10:08;98843.38;;;7.88;91.54
52975;BME280;38839;45.186;5.720;2023-04-02T03:12:42;98844.22;;;7.85;91.77
52975;BME280;38839;45.186;5.720;2023-04-02T03:15:24;98848.50;;;7.79;92.74
52975;BME280;38839;45.186;5.720;2023-04-02T03:18:12;98843.34;;;7.82;92.43
52975;BME280;38839;45.186;5.720;2023-04-02T03:20:52;98843.28;;;7.73;93.34
52975;BME280;38839;45.186;5.720;2023-04-02T03:23:35;98833.81;;;7.82;92.76
52975;BME280;38839;45.186;5.720;2023-04-02T03:26:23;98839.91;;;7.95;90.91
52975;BME280;38839;45.186;5.720;2023-04-02T03:29:01;98843.38;;;8.03;90.79
52975;BME280;38839;45.186;5.720;2023-04-02T03:31:38;98845.16;;;8.15;89.40
52975;BME280;38839;45.186;5.720;2023-04-02T03:34:28;98844.28;;;8.30;88.99
52975;BME280;38839;45.186;5.720;2023-04-02T03:37:17;98844.34;;;8.45;88.55
52975;BME280;38839;45.186;5.720;2023-04-02T03:40:04;98856.47;;;8.50;87.77
52975;BME280;38839;45.186;5.720;2023-04-02T03:42:39;98852.13;;;8.55;87.52
52975;BME280;38839;45.186;5.720;2023-04-02T03:45:19;98862.50;;;8.39;87.76
52975;BME280;38839;45.186;5.720;2023-04-02T03:47:51;98869.38;;;8.00;88.96
52975;BME280;38839;45.186;5.720;2023-04-02T03:50:24;98859.84;;;7.98;90.24
52975;BME280;38839;45.186;5.720;2023-04-02T03:52:52;98860.72;;;8.04;89.62
52975;BME280;38839;45.186;5.720;2023-04-02T03:55:23;98865.03;;;8.01;89.93
52975;BME280;38839;45.186;5.720;2023-04-02T04:00:49;98864.13;;;7.91;90.75
52975;BME280;38839;45.186;5.720;2023-04-02T04:05:56;98865.84;;;7.89;89.98
52975;BME280;38839;45.186;5.720;2023-04-02T04:08:24;98868.47;;;7.91;90.38
52975;BME280;38839;45.186;5.720;2023-04-02T04:10:53;98865.88;;;7.86;91.12
52975;BME280;38839;45.186;5.720;2023-04-02T04:13:48;98871.91;;;7.86;91.39
52975;BME280;38839;45.186;5.720;2023-04-02T04:16:27;98876.25;;;7.89;91.75
52975;BME280;38839;45.186;5.720;2023-04-02T04:19:04;98864.13;;;7.91;92.27
52975;BME280;38839;45.186;5.720;2023-04-02T04:21:33;98864.13;;;7.85;90.86
52975;BME280;38839;45.186;5.720;2023-04-02T04:24:04;98862.41;;;7.90;91.09
52975;BME280;38839;45.186;5.720;2023-04-02T04:26:44;98866.78;;;8.02;90.67
52975;BME280;38839;45.186;5.720;2023-04-02T04:29:33;98868.50;;;8.01;91.43
52975;BME280;38839;45.186;5.720;2023-04-02T04:32:20;98874.56;;;8.03;90.74
52975;BME280;38839;45.186;5.720;2023-04-02T04:34:54;98863.31;;;8.03;90.83
52975;BME280;38839;45.186;5.720;2023-04-02T04:37:33;98871.09;;;8.00;90.77
52975;BME280;38839;45.186;5.720;2023-04-02T04:40:19;98876.28;;;7.92;91.07
52975;BME280;38839;45.186;5.720;2023-04-02T04:42:47;98877.09;;;7.86;91.31
52975;BME280;38839;45.186;5.720;2023-04-02T04:45:34;98879.66;;;7.74;92.41
52975;BME280;38839;45.186;5.720;2023-04-02T04:48:04;98883.13;;;7.72;92.24
52975;BME280;38839;45.186;5.720;2023-04-02T04:50:36;98879.66;;;7.71;93.35
52975;BME280;38839;45.186;5.720;2023-04-02T04:53:11;98885.72;;;7.76;93.56
52975;BME280;38839;45.186;5.720;2023-04-02T04:55:42;98887.53;;;7.90;93.14
52975;BME280;38839;45.186;5.720;2023-04-02T04:58:31;98878.88;;;7.88;93.56
52975;BME280;38839;45.186;5.720;2023-04-02T05:03:59;98886.66;;;7.95;92.79
52975;BME280;38839;45.186;5.720;2023-04-02T05:08:58;98884.00;;;7.78;92.14
52975;BME280;38839;45.186;5.720;2023-04-02T05:11:31;98884.88;;;7.79;92.09
52975;BME280;38839;45.186;5.720;2023-04-02T05:14:01;98884.91;;;7.91;92.10
52975;BME280;38839;45.186;5.720;2023-04-02T05:21:47;98894.47;;;8.03;91.50
52975;BME280;38839;45.186;5.720;2023-04-02T05:26:45;98902.19;;;7.74;91.85
52975;BME280;38839;45.186;5.720;2023-04-02T05:29:18;98908.22;;;7.74;91.54
52975;BME280;38839;45.186;5.720;2023-04-02T05:31:48;98906.47;;;7.70;91.37
52975;BME280;38839;45.186;5.720;2023-04-02T05:34:24;98902.16;;;7.69;92.05
52975;BME280;38839;45.186;5.720;2023-04-02T05:36:52;98903.84;;;7.59;92.12
52975;BME280;38839;45.186;5.720;2023-04-02T05:39:22;98910.72;;;7.51;92.90
52975;BME280;38839;45.186;5.720;2023-04-02T05:41:58;98915.94;;;7.57;92.42
52975;BME280;38839;45.186;5.720;2023-04-02T05:44:28;98912.44;;;7.52;92.74
52975;BME280;38839;45.186;5.720;2023-04-02T05:47:18;98921.09;;;7.51;92.97
52975;BME280;38839;45.186;5.720;2023-04-02T05:49:53;98915.94;;;7.57;93.18
52975;BME280;38839;45.186;5.720;2023-04-02T05:52:25;98918.59;;;7.65;92.69
52975;BME280;38839;45.186;5.720;2023-04-02T05:57:49;98924.66;;;7.75;92.11
52975;BME280;38839;45.186;5.720;2023-04-02T06:00:21;98927.28;;;7.81;92.59
52975;BME280;38839;45.186;5.720;2023-04-02T06:02:54;98931.69;;;7.97;91.67
52975;BME280;38839;45.186;5.720;2023-04-02T06:05:37;98931.72;;;8.03;90.56
52975;BME280;38839;45.186;5.720;2023-04-02T06:08:14;98921.38;;;8.13;90.02
52975;BME280;38839;45.186;5.720;2023-04-02T06:11:09;98923.84;;;7.86;90.66
52975;BME280;38839;45.186;5.720;2023-04-02T06:13:35;98924.81;;;8.04;90.55
52975;BME280;38839;45.186;5.720;2023-04-02T06:16:01;98924.81;;;8.09;89.65
52975;BME280;38839;45.186;5.720;2023-04-02T06:18:32;98926.56;;;8.17;89.38
52975;BME280;38839;45.186;5.720;2023-04-02T06:21:01;98933.50;;;8.17;89.36
52975;BME280;38839;45.186;5.720;2023-04-02T06:23:36;98937.06;;;8.46;88.64
52975;BME280;38839;45.186;5.720;2023-04-02T06:26:18;98935.31;;;8.49;87.77
52975;BME280;38839;45.186;5.720;2023-04-02T06:32:11;98938.78;;;8.51;87.43
52975;BME280;38839;45.186;5.720;2023-04-02T06:34:30;98947.50;;;8.62;86.62
52975;BME280;38839;45.186;5.720;2023-04-02T06:37:21;98946.59;;;8.52;86.25
52975;BME280;38839;45.186;5.720;2023-04-02T06:39:47;98948.31;;;8.42;85.64
52975;BME280;38839;45.186;5.720;2023-04-02T06:42:17;98950.97;;;8.58;84.99
52975;BME280;38839;45.186;5.720;2023-04-02T06:44:43;98950.09;;;8.68;84.19
52975;BME280;38839;45.186;5.720;2023-04-02T06:47:15;98962.25;;;8.77;83.78
52975;BME280;38839;45.186;5.720;2023-04-02T06:49:46;98955.28;;;8.71;83.86
52975;BME280;38839;45.186;5.720;2023-04-02T06:52:29;98957.88;;;8.51;84.03
52975;BME280;38839;45.186;5.720;2023-04-02T06:54:57;98957.06;;;8.78;83.21
52975;BME280;38839;45.186;5.720;2023-04-02T06:57:23;98964.84;;;8.77;83.25
52975;BME280;38839;45.186;5.720;2023-04-02T06:59:48;98968.31;;;8.66;82.68
52975;BME280;38839;45.186;5.720;2023-04-02T07:02:30;98971.81;;;8.78;82.59
52975;BME280;38839;45.186;5.720;2023-04-02T07:05:01;98970.06;;;8.91;81.59
52975;BME280;38839;45.186;5.720;2023-04-02T07:07:27;98973.53;;;9.03;81.27
52975;BME280;38839;45.186;5.720;2023-04-02T07:09:52;98973.53;;;9.17;81.40
52975;BME280;38839;45.186;5.720;2023-04-02T07:12:21;98981.34;;;9.36;81.21
52975;BME280;38839;45.186;5.720;2023-04-02T07:14:47;98984.78;;;9.53;80.77
52975;BME280;38839;45.186;5.720;2023-04-02T07:17:15;98984.78;;;9.29;80.55
52975;BME280;38839;45.186;5.720;2023-04-02T07:19:42;98983.03;;;9.58;80.27
52975;BME280;38839;45.186;5.720;2023-04-02T07:22:10;98987.31;;;9.87;79.25
52975;BME280;38839;45.186;5.720;2023-04-02T07:24:36;98986.44;;;9.82;78.79
52975;BME280;38839;45.186;5.720;2023-04-02T07:27:01;98985.53;;;9.92;78.26
52975;BME280;38839;45.186;5.720;2023-04-02T07:29:26;98987.34;;;9.72;79.30
52975;BME280;38839;45.186;5.720;2023-04-02T07:31:52;98984.75;;;9.75;78.91
52975;BME280;38839;45.186;5.720;2023-04-02T07:34:18;98987.31;;;9.87;78.07
52975;BME280;38839;45.186;5.720;2023-04-02T07:36:43;98990.75;;;10.00;77.28
52975;BME280;38839;45.186;5.720;2023-04-02T10:09:27;99059.06;;;12.71;60.44
52975;BME280;38839;45.186;5.720;2023-04-02T10:11:55;99084.47;;;12.64;61.24
52975;BME280;38839;45.186;5.720;2023-04-02T10:14:42;99071.47;;;12.58;61.77
52975;BME280;38839;45.186;5.720;2023-04-02T10:17:19;99076.22;;;12.22;62.66
52975;BME280;38839;45.186;5.720;2023-04-02T10:19:52;99067.25;;;12.44;62.56
52975;BME280;38839;45.186;5.720;2023-04-02T10:22:21;99071.03;;;12.19;63.28
52975;BME280;38839;45.186;5.720;2023-04-02T10:24:47;99073.25;;;12.53;62.45
52975;BME280;38839;45.186;5.720;2023-04-02T10:27:36;99063.69;;;12.52;62.68
52975;BME280;38839;45.186;5.720;2023-04-02T10:30:38;99068.16;;;12.42;63.07
52975;BME280;38839;45.186;5.720;2023-04-02T10:38:42;99074.53;;;12.18;62.86
52975;BME280;38839;45.186;5.720;2023-04-02T10:41:29;99084.63;;;12.48;61.60
52975;BME280;38839;45.186;5.720;2023-04-02T10:44:21;99075.84;;;12.56;60.37
52975;BME280;38839;45.186;5.720;2023-04-02T10:54:48;99074.13;;;12.53;61.26
52975;BME280;38839;45.186;5.720;2023-04-02T10:57:34;99079.00;;;12.82;59.76
52975;BME280;38839;45.186;5.720;2023-04-02T11:02:59;99078.56;;;13.12;59.57
52975;BME280;38839;45.186;5.720;2023-04-02T11:05:51;99073.31;;;13.13;60.33
52975;BME280;38839;45.186;5.720;2023-04-02T11:08:21;99075.69;;;13.32;60.79
52975;BME280;38839;45.186;5.720;2023-04-02T11:10:50;99082.47;;;13.45;61.03
52975;BME280;38839;45.186;5.720;2023-04-02T11:15:46;99086.28;;;13.22;61.04
52975;BME280;38839;45.186;5.720;2023-04-02T11:18:25;99077.00;;;13.00;61.16
52975;BME280;38839;45.186;5.720;2023-04-02T11:20:58;99088.28;;;13.06;61.09
52975;BME280;38839;45.186;5.720;2023-04-02T11:23:37;99086.69;;;12.92;60.89
52975;BME280;38839;45.186;5.720;2023-04-02T11:26:27;99089.47;;;12.82;61.94
52975;BME280;38839;45.186;5.720;2023-04-02T11:29:04;99099.63;;;13.04;61.82
52975;BME280;38839;45.186;5.720;2023-04-02T11:31:30;99086.75;;;12.88;61.63
52975;BME280;38839;45.186;5.720;2023-04-02T11:33:56;99082.28;;;12.97;61.17
52975;BME280;38839;45.186;5.720;2023-04-02T11:44:43;99098.84;;;12.99;60.55
52975;BME280;38839;45.186;5.720;2023-04-02T11:47:28;99100.47;;;13.07;60.89
52975;BME280;38839;45.186;5.720;2023-04-02T11:55:26;99111.03;;;13.01;60.57
52975;BME280;38839;45.186;5.720;2023-04-02T12:04:05;99114.47;;;12.35;63.46
52975;BME280;38839;45.186;5.720;2023-04-02T12:09:24;99120.88;;;12.05;63.32
52975;BME280;38839;45.186;5.720;2023-04-02T12:11:53;99118.19;;;12.10;62.36
52975;BME280;38839;45.186;5.720;2023-04-02T12:19:43;99117.78;;;12.50;61.21
52975;BME280;38839;45.186;5.720;2023-04-02T12:22:22;99111.72;;;12.44;61.38
52975;BME280;38839;45.186;5.720;2023-04-02T12:24:49;99117.00;;;12.41;61.04
52975;BME280;38839;45.186;5.720;2023-04-02T12:27:23;99108.94;;;12.60;60.63
52975;BME280;38839;45.186;5.720;2023-04-02T12:29:55;99100.19;;;12.61;60.38
52975;BME280;38839;45.186;5.720;2023-04-02T12:32:28;99103.47;;;12.78;59.99
52975;BME280;38839;45.186;5.720;2023-04-02T12:34:55;99097.91;;;13.03;59.85
52975;BME280;38839;45.186;5.720;2023-04-02T12:37:27;99090.81;;;13.09;58.75
52975;BME280;38839;45.186;5.720;2023-04-02T12:40:16;99112.31;;;13.36;59.03
52975;BME280;38839;45.186;5.720;2023-04-02T12:42:41;99108.63;;;13.48;58.85
52975;BME280;38839;45.186;5.720;2023-04-02T12:45:24;99113.47;;;13.15;60.35
52975;BME280;38839;45.186;5.720;2023-04-02T12:47:51;99125.59;;;13.21;60.90
52975;BME280;38839;45.186;5.720;2023-04-02T12:50:18;99118.41;;;13.37;61.16
52975;BME280;38839;45.186;5.720;2023-04-02T12:52:46;99121.09;;;13.34;61.94
52975;BME280;38839;45.186;5.720;2023-04-02T12:55:20;99115.09;;;13.22;61.58
52975;BME280;38839;45.186;5.720;2023-04-02T12:57:46;99119.69;;;13.06;61.84
52975;BME280;38839;45.186;5.720;2023-04-02T13:02:48;99105.72;;;13.06;61.02
52975;BME280;38839;45.186;5.720;2023-04-02T13:07:56;99109.13;;;13.13;60.49
52975;BME280;38839;45.186;5.720;2023-04-02T13:10:26;99102.69;;;13.37;59.39
52975;BME280;38839;45.186;5.720;2023-04-02T13:12:56;99091.00;;;12.99;59.49
52975;BME280;38839;45.186;5.720;2023-04-02T13:15:29;99097.75;;;13.14;59.73
52975;BME280;38839;45.186;5.720;2023-04-02T13:18:19;99095.03;;;13.21;58.66
52975;BME280;38839;45.186;5.720;2023-04-02T13:23:34;99095.63;;;13.42;57.81
52975;BME280;38839;45.186;5.720;2023-04-02T13:28:41;99098.41;;;13.84;57.00
52975;BME280;38839;45.186;5.720;2023-04-02T13:31:14;99093.97;;;13.91;56.59
52975;BME280;38839;45.186;5.720;2023-04-02T13:33:40;99090.75;;;13.73;57.11
52975;BME280;38839;45.186;5.720;2023-04-02T13:36:11;99100.78;;;13.48;57.55
52975;BME280;38839;45.186;5.720;2023-04-02T13:38:37;99086.56;;;13.61;56.92
52975;BME280;38839;45.186;5.720;2023-04-02T13:41:02;99089.88;;;13.73;57.05
52975;BME280;38839;45.186;5.720;2023-04-02T13:43:28;99088.84;;;13.81;56.76
52975;BME280;38839;45.186;5.720;2023-04-02T13:45:53;99088.97;;;13.75;57.34
52975;BME280;38839;45.186;5.720;2023-04-02T13:48:19;99093.88;;;13.41;58.16
52975;BME280;38839;45.186;5.720;2023-04-02T13:50:49;99083.50;;;13.35;57.96
52975;BME280;38839;45.186;5.720;2023-04-02T13:53:26;99089.16;;;13.63;57.70
52975;BME280;38839;45.186;5.720;2023-04-02T13:55:53;99092.25;;;13.34;59.08
52975;BME280;38839;45.186;5.720;2023-04-02T13:58:19;99101.06;;;13.26;58.87
52975;BME280;38839;45.186;5.720;2023-04-02T14:00:45;99099.34;;;13.25;59.76
52975;BME280;38839;45.186;5.720;2023-04-02T14:03:21;99093.28;;;13.22;60.11
52975;BME280;38839;45.186;5.720;2023-04-02T14:09:00;99090.84;;;13.08;61.00
52975;BME280;38839;45.186;5.720;2023-04-02T14:11:40;99095.06;;;13.18;60.82
52975;BME280;38839;45.186;5.720;2023-04-02T14:14:44;99096.41;;;13.47;60.72
52975;BME280;38839;45.186;5.720;2023-04-02T14:20:19;99097.47;;;13.35;60.57
52975;BME280;38839;45.186;5.720;2023-04-02T14:30:57;99106.78;;;13.53;58.84
52975;BME280;38839;45.186;5.720;2023-04-02T14:42:12;99128.56;;;13.58;58.10
52975;BME280;38839;45.186;5.720;2023-04-02T14:44:45;99106.28;;;13.30;58.50
52975;BME280;38839;45.186;5.720;2023-04-02T14:47:21;99097.75;;;13.15;58.65
52975;BME280;38839;45.186;5.720;2023-04-02T14:49:52;99110.00;;;13.13;58.84
52975;BME280;38839;45.186;5.720;2023-04-02T14:52:21;99098.59;;;13.16;58.67
52975;BME280;38839;45.186;5.720;2023-04-02T14:54:52;99109.19;;;13.08;58.84
52975;BME280;38839;45.186;5.720;2023-04-02T14:57:24;99106.13;;;12.75;59.60
52975;BME280;38839;45.186;5.720;2023-04-02T15:02:33;99112.50;;;12.53;60.29
52975;BME280;38839;45.186;5.720;2023-04-02T15:07:48;99110.22;;;12.23;61.45
52975;BME280;38839;45.186;5.720;2023-04-02T15:12:47;99121.50;;;12.28;63.08
52975;BME280;38839;45.186;5.720;2023-04-02T15:18:00;99120.66;;;12.26;63.57
52975;BME280;38839;45.186;5.720;2023-04-02T15:20:37;99122.38;;;12.29;63.81
52975;BME280;38839;45.186;5.720;2023-04-02T15:25:47;99126.03;;;12.14;64.66
52975;BME280;38839;45.186;5.720;2023-04-02T15:30:52;99128.59;;;12.16;64.96
52975;BME280;38839;45.186;5.720;2023-04-02T15:33:41;99130.28;;;12.23;64.88
52975;BME280;38839;45.186;5.720;2023-04-02T15:36:18;99125.97;;;12.17;65.32
52975;BME280;38839;45.186;5.720;2023-04-02T15:38:54;99131.44;;;11.93;67.08
52975;BME280;38839;45.186;5.720;2023-04-02T15:41:30;99134.97;;;11.82;68.71
52975;BME280;38839;45.186;5.720;2023-04-02T15:47:12;99143.78;;;11.72;70.38
52975;BME280;38839;45.186;5.720;2023-04-02T15:49:46;99143.72;;;11.78;70.14
52975;BME280;38839;45.186;5.720;2023-04-02T15:55:17;99160.25;;;11.79;69.85
52975;BME280;38839;45.186;5.720;2023-04-02T16:06:09;99145.53;;;11.68;69.39
52975;BME280;38839;45.186;5.720;2023-04-02T16:08:57;99137.72;;;11.65;68.87
52975;BME280;38839;45.186;5.720;2023-04-02T16:11:26;99145.47;;;11.79;68.35
52975;BME280;38839;45.186;5.720;2023-04-02T16:13:59;99153.31;;;11.75;67.87
52975;BME280;38839;45.186;5.720;2023-04-02T16:16:33;99152.47;;;11.76;67.76
52975;BME280;38839;45.186;5.720;2023-04-02T16:19:12;99155.09;;;11.73;67.73
52975;BME280;38839;45.186;5.720;2023-04-02T16:21:49;99153.41;;;11.65;67.91
52975;BME280;38839;45.186;5.720;2023-04-02T16:24:18;99169.06;;;11.68;67.88
52975;BME280;38839;45.186;5.720;2023-04-02T16:26:55;99159.53;;;11.58;68.53
52975;BME280;38839;45.186;5.720;2023-04-02T16:32:45;99174.41;;;11.53;67.98
52975;BME280;38839;45.186;5.720;2023-04-02T16:40:58;99182.31;;;11.42;67.96
52975;BME280;38839;45.186;5.720;2023-04-02T16:43:39;99185.78;;;11.44;68.27
52975;BME280;38839;45.186;5.720;2023-04-02T16:46:21;99185.78;;;11.44;67.99
52975;BME280;38839;45.186;5.720;2023-04-02T16:51:44;99204.06;;;11.40;67.81
52975;BME280;38839;45.186;5.720;2023-04-02T16:54:18;99196.28;;;11.35;68.30
52975;BME280;38839;45.186;5.720;2023-04-02T17:02:30;99210.28;;;11.19;71.82
52975;BME280;38839;45.186;5.720;2023-04-02T17:07:34;99227.78;;;10.98;73.25
52975;BME280;38839;45.186;5.720;2023-04-02T17:10:22;99225.19;;;10.94;73.72
52975;BME280;38839;45.186;5.720;2023-04-02T17:13:02;99228.66;;;10.96;73.56
52975;BME280;38839;45.186;5.720;2023-04-02T17:15:37;99222.56;;;10.98;74.11
52975;BME280;38839;45.186;5.720;2023-04-02T17:18:21;99238.22;;;11.01;74.88
52975;BME280;38839;45.186;5.720;2023-04-02T17:20:49;99235.66;;;10.87;75.06
52975;BME280;38839;45.186;5.720;2023-04-02T17:23:16;99236.53;;;10.85;75.61
52975;BME280;38839;45.186;5.720;2023-04-02T17:26:04;99240.88;;;10.81;76.76
52975;BME280;38839;45.186;5.720;2023-04-02T17:28:33;99241.78;;;10.70;77.33
52975;BME280;38839;45.186;5.720;2023-04-02T17:31:02;99234.84;;;10.65;77.61
52975;BME280;38839;45.186;5.720;2023-04-02T17:33:30;99254.84;;;10.62;78.18
52975;BME280;38839;45.186;5.720;2023-04-02T17:41:19;99251.34;;;10.66;78.75
52975;BME280;38839;45.186;5.720;2023-04-02T17:44:15;99247.88;;;10.67;78.42
52975;BME280;38839;45.186;5.720;2023-04-02T17:49:40;99263.53;;;10.52;78.83
52975;BME280;38839;45.186;5.720;2023-04-02T17:52:26;99257.47;;;10.48;79.23
52975;BME280;38839;45.186;5.720;2023-04-02T17:55:21;99258.34;;;10.49;79.45
52975;BME280;38839;45.186;5.720;2023-04-02T17:58:13;99270.50;;;10.50;78.96
52975;BME280;38839;45.186;5.720;2023-04-02T18:11:54;99276.59;;;10.47;78.87
52975;BME280;38839;45.186;5.720;2023-04-02T18:23:15;99278.34;;;10.43;79.49
52975;BME280;38839;45.186;5.720;2023-04-02T18:28:34;99282.69;;;10.38;79.83
52975;BME280;38839;45.186;5.720;2023-04-02T18:31:16;99281.81;;;10.33;79.85
52975;BME280;38839;45.186;5.720;2023-04-02T18:36:56;99294.00;;;10.34;79.92
52975;BME280;38839;45.186;5.720;2023-04-02T18:39:37;99288.75;;;10.31;79.75
52975;BME280;38839;45.186;5.720;2023-04-02T18:44:57;99298.28;;;10.29;79.74
52975;BME280;38839;45.186;5.720;2023-04-02T18:47:56;99307.88;;;10.28;80.11
52975;BME280;38839;45.186;5.720;2023-04-02T18:50:32;99307.84;;;10.22;80.18
52975;BME280;38839;45.186;5.720;2023-04-02T18:53:05;99313.06;;;10.16;80.53
52975;BME280;38839;45.186;5.720;2023-04-02T18:55:35;99321.78;;;10.20;80.61
52975;BME280;38839;45.186;5.720;2023-04-02T18:58:13;99318.31;;;10.19;80.96
52975;BME280;38839;45.186;5.720;2023-04-02T19:00:40;99331.31;;;10.18;81.06
52975;BME280;38839;45.186;5.720;2023-04-02T19:09:00;99333.91;;;10.04;82.94
52975;BME280;38839;45.186;5.720;2023-04-02T19:11:27;99337.34;;;9.98;82.71
52975;BME280;38839;45.186;5.720;2023-04-02T19:14:01;99341.72;;;9.99;82.80
52975;BME280;38839;45.186;5.720;2023-04-02T19:19:29;99340.00;;;10.01;82.31
52975;BME280;38839;45.186;5.720;2023-04-02T19:28:27;99353.91;;;10.05;81.11
52975;BME280;38839;45.186;5.720;2023-04-02T19:31:08;99355.66;;;10.09;80.62
52975;BME280;38839;45.186;5.720;2023-04-02T19:38:49;99367.81;;;10.10;80.05
52975;BME280;38839;45.186;5.720;2023-04-02T19:43:56;99364.31;;;10.03;80.48
52975;BME280;38839;45.186;5.720;2023-04-02T19:46:23;99367.78;;;9.99;80.75
52975;BME280;38839;45.186;5.720;2023-04-02T19:49:15;99369.53;;;9.97;80.88
52975;BME280;38839;45.186;5.720;2023-04-02T19:51:47;99373.84;;;9.94;81.19
52975;BME280;38839;45.186;5.720;2023-04-02T19:54:12;99379.94;;;9.97;81.14
52975;BME280;38839;45.186;5.720;2023-04-02T19:56:37;99374.72;;;9.93;81.85
52975;BME280;38839;45.186;5.720;2023-04-02T19:59:03;99373.84;;;9.95;82.10
52975;BME280;38839;45.186;5.720;2023-04-02T20:01:29;99376.47;;;9.95;82.19
52975;BME280;38839;45.186;5.720;2023-04-02T20:03:54;99387.72;;;9.94;82.18
52975;BME280;38839;45.186;5.720;2023-04-02T20:06:20;99390.34;;;9.91;82.08
52975;BME280;38839;45.186;5.720;2023-04-02T20:08:45;99381.66;;;9.94;82.01
52975;BME280;38839;45.186;5.720;2023-04-02T20:11:11;99386.88;;;9.95;82.22
52975;BME280;38839;45.186;5.720;2023-04-02T20:13:36;99383.38;;;9.87;82.18
52975;BME280;38839;45.186;5.720;2023-04-02T20:16:03;99385.09;;;9.88;82.44